Time;durP1;ratioP1;P1;durP2;ratioP2;P2;SDS_P1;SDS_P2;PMS_P1;PMS_P2;Temp;Humidity;BMP_temperature;BMP_pressure;BME280_temperature;BME280_humidity;BME280_pressure;Samples;Min_cycle;Max_cycle;Signal;HPM_P1;HPM_P2
2022/01/15 00:01:30;;;;;;;9.98;7.22;;;14.80;51.10;13.90;102873.00;;;;4934709;28;20104;-88
2022/01/15 00:04:16;;;;;;;10.35;7.90;;;14.80;51.10;13.90;102875.00;;;;4947223;28;20415;-88
2022/01/15 00:07:02;;;;;;;11.70;8.73;;;14.80;51.10;13.90;102867.00;;;;4948423;28;20038;-88
2022/01/15 00:09:50;;;;;;;8.95;7.32;;;14.80;51.20;13.90;102867.00;;;;4946098;28;20104;-88
2022/01/15 00:12:40;;;;;;;12.13;8.23;;;14.80;51.10;13.90;102874.00;;;;4949206;28;20042;-88
2022/01/15 00:15:36;;;;;;;9.10;6.82;;;14.80;51.10;13.90;102862.00;;;;4949801;28;20042;-88
2022/01/15 00:18:39;;;;;;;10.70;7.50;;;14.80;51.10;13.90;102864.00;;;;4942810;28;20121;-88
2022/01/15 00:21:26;;;;;;;11.45;7.93;;;14.80;51.10;13.90;102859.00;;;;4936164;28;20044;-88
2022/01/15 00:24:15;;;;;;;10.88;7.95;;;14.80;51.10;13.90;102864.00;;;;4964511;28;20034;-88
2022/01/15 00:27:01;;;;;;;11.20;7.63;;;14.80;51.10;13.90;102865.00;;;;4939184;28;20133;-88
2022/01/15 00:29:47;;;;;;;10.13;7.55;;;14.80;51.10;13.90;102858.00;;;;4950091;28;20049;-88
2022/01/15 00:32:36;;;;;;;12.50;7.55;;;14.80;51.10;13.90;102849.00;;;;4939098;28;20046;-88
2022/01/15 00:35:23;;;;;;;9.90;7.05;;;14.80;51.10;13.90;102856.00;;;;4951211;28;20050;-88
2022/01/15 00:38:10;;;;;;;11.45;8.25;;;14.80;51.10;13.90;102859.00;;;;4947593;28;20039;-87
2022/01/15 00:40:59;;;;;;;9.82;7.93;;;14.80;51.10;13.90;102854.00;;;;4951200;28;20035;-88
2022/01/15 00:43:45;;;;;;;10.30;7.25;;;14.80;51.10;13.90;102851.00;;;;4928607;28;20817;-88
2022/01/15 00:46:31;;;;;;;11.10;7.85;;;14.80;51.10;13.90;102841.00;;;;4938278;28;20046;-88
2022/01/15 00:49:18;;;;;;;9.95;7.95;;;14.80;51.10;13.90;102848.00;;;;4950693;28;20030;-88
2022/01/15 00:52:04;;;;;;;11.40;7.60;;;14.80;51.20;13.90;102845.00;;;;4935248;28;20105;-88
2022/01/15 00:54:51;;;;;;;10.93;7.78;;;14.80;51.20;13.90;102843.00;;;;4950375;28;20152;-86
2022/01/15 00:57:38;;;;;;;11.57;8.52;;;14.80;51.20;13.90;102845.00;;;;4936938;28;20042;-88
2022/01/15 01:00:25;;;;;;;11.43;7.87;;;14.80;51.20;13.90;102839.00;;;;4947389;28;20482;-88
2022/01/15 01:03:11;;;;;;;9.90;7.72;;;14.80;51.90;13.90;102835.00;;;;4936511;28;20113;-88
2022/01/15 01:05:58;;;;;;;10.13;7.90;;;14.80;51.20;13.90;102826.00;;;;4948780;28;20359;-87
2022/01/15 01:08:44;;;;;;;11.63;8.23;;;14.90;51.20;13.90;102838.00;;;;4935573;28;20100;-88
2022/01/15 01:11:43;;;;;;;10.65;8.07;;;14.80;51.20;13.90;102819.00;;;;4934867;28;20407;-88
2022/01/15 01:20:59;;;;;;;10.35;7.32;;;14.80;51.20;13.90;102804.00;;;;4954474;28;20057;-88
2022/01/15 01:23:45;;;;;;;10.00;7.63;;;14.90;51.20;13.90;102806.00;;;;4955661;28;20042;-88
2022/01/15 01:26:40;;;;;;;11.20;8.07;;;14.80;51.20;13.90;102804.00;;;;4947308;28;20038;-88
2022/01/15 01:32:46;;;;;;;13.15;8.98;;;14.80;51.20;13.90;102796.00;;;;4951355;28;20038;-87
2022/01/15 01:35:40;;;;;;;11.70;8.57;;;14.80;51.20;13.90;102791.00;;;;4941959;28;20123;-88
2022/01/15 01:38:31;;;;;;;12.45;9.00;;;14.80;51.10;13.90;102792.00;;;;4939053;28;20125;-88
2022/01/15 01:41:20;;;;;;;12.35;8.90;;;14.80;51.20;13.90;102791.00;;;;4948782;28;20492;-88
2022/01/15 01:44:08;;;;;;;12.70;8.93;;;14.80;51.20;13.90;102788.00;;;;4960911;28;20042;-87
2022/01/15 01:47:03;;;;;;;12.50;8.70;;;14.80;51.20;13.90;102785.00;;;;4955263;28;20042;-88
2022/01/15 01:49:52;;;;;;;10.63;8.25;;;14.80;51.20;13.90;102785.00;;;;4937244;28;20108;-88
2022/01/15 01:52:39;;;;;;;12.80;8.90;;;14.90;51.20;13.90;102790.00;;;;4934163;28;20130;-88
2022/01/15 01:55:26;;;;;;;11.50;8.10;;;14.80;51.20;13.90;102779.00;;;;4934602;28;20035;-88
2022/01/15 01:58:12;;;;;;;11.55;8.65;;;14.90;51.20;13.90;102777.00;;;;4932217;28;20099;-88
2022/01/15 02:00:58;;;;;;;12.68;9.05;;;14.90;51.20;13.90;102771.00;;;;4935953;28;20040;-88
2022/01/15 02:03:45;;;;;;;11.68;8.93;;;14.90;51.20;13.90;102765.00;;;;4932936;28;20030;-88
2022/01/15 02:06:31;;;;;;;11.68;8.57;;;14.90;51.20;13.90;102771.00;;;;4948615;28;20046;-88
2022/01/15 02:09:23;;;;;;;13.82;8.73;;;14.90;51.20;13.90;102767.00;;;;4931486;28;20078;-88
2022/01/15 02:12:09;;;;;;;13.18;9.27;;;14.90;51.20;13.90;102767.00;;;;4935192;28;20061;-88
2022/01/15 02:14:56;;;;;;;12.82;9.00;;;14.90;51.20;13.90;102763.00;;;;4934759;28;20124;-88
2022/01/15 02:17:43;;;;;;;11.82;9.00;;;14.90;51.20;13.90;102766.00;;;;4933394;28;20049;-88
2022/01/15 02:23:35;;;;;;;15.88;9.57;;;14.80;51.20;13.90;102755.00;;;;4960691;28;20418;-87
2022/01/15 02:26:26;;;;;;;14.05;9.95;;;14.90;51.30;13.90;102744.00;;;;4940424;28;20050;-88
2022/01/15 02:29:12;;;;;;;12.55;9.43;;;14.90;51.30;13.90;102751.00;;;;4945106;28;20121;-88
2022/01/15 02:31:59;;;;;;;13.38;9.35;;;14.90;51.20;13.90;102747.00;;;;4934969;28;20108;-88
2022/01/15 02:34:45;;;;;;;12.95;8.75;;;14.90;51.20;13.90;102749.00;;;;4946358;28;20093;-88
2022/01/15 02:37:31;;;;;;;12.05;8.75;;;14.90;51.20;13.90;102735.00;;;;4934375;28;20069;-88
2022/01/15 02:40:17;;;;;;;12.63;9.13;;;14.90;51.20;13.90;102743.00;;;;4933486;28;20121;-87
2022/01/15 02:43:10;;;;;;;11.75;8.55;;;14.90;51.20;13.90;102749.00;;;;4939805;28;20034;-87
2022/01/15 02:45:57;;;;;;;14.05;9.30;;;14.90;51.20;13.90;102745.00;;;;4943225;28;20042;-88
2022/01/15 02:49:04;;;;;;;13.55;9.77;;;14.90;51.20;13.90;102730.00;;;;4934062;28;20510;-88
2022/01/15 02:51:50;;;;;;;13.50;9.65;;;15.40;51.50;13.90;102732.00;;;;4948701;28;20048;-88
2022/01/15 02:54:36;;;;;;;13.43;9.30;;;14.90;51.20;13.90;102729.00;;;;4957130;28;20038;-88
2022/01/15 02:57:22;;;;;;;15.43;10.30;;;14.90;51.20;13.90;102712.00;;;;4968628;28;20054;-88
2022/01/15 03:00:10;;;;;;;11.90;8.85;;;14.90;51.20;13.90;102720.00;;;;4944083;28;20077;-88
2022/01/15 03:02:56;;;;;;;13.95;9.57;;;14.90;51.20;13.90;102715.00;;;;4944349;28;20482;-87
2022/01/15 03:05:42;;;;;;;13.63;9.90;;;14.90;51.20;13.90;102720.00;;;;4934159;28;20061;-87
2022/01/15 03:08:32;;;;;;;16.42;11.07;;;14.90;51.20;13.90;102723.00;;;;4945617;28;20510;-88
2022/01/15 03:11:18;;;;;;;14.40;9.98;;;14.90;51.20;13.90;102706.00;;;;4949079;28;20038;-88
2022/01/15 03:14:05;;;;;;;14.48;9.93;;;14.90;51.20;13.90;102717.00;;;;4958908;28;20034;-87
2022/01/15 03:16:51;;;;;;;16.48;10.00;;;14.90;51.20;13.90;102710.00;;;;4942705;28;20056;-88
2022/01/15 03:19:37;;;;;;;13.15;8.93;;;14.90;51.20;13.90;102715.00;;;;4934808;28;20128;-88
2022/01/15 03:22:23;;;;;;;16.77;10.00;;;14.90;51.20;13.90;102721.00;;;;4932060;28;20053;-87
2022/01/15 03:25:10;;;;;;;15.38;10.10;;;14.90;51.20;13.90;102717.00;;;;4952329;28;20041;-88
2022/01/15 03:27:56;;;;;;;13.40;9.55;;;14.80;51.20;13.90;102705.00;;;;4960619;28;20042;-88
2022/01/15 03:30:42;;;;;;;14.93;9.55;;;14.90;51.20;13.90;102713.00;;;;4948947;28;20093;-88
2022/01/15 03:33:29;;;;;;;14.70;10.48;;;14.90;51.20;13.90;102707.00;;;;4947882;28;20042;-88
2022/01/15 03:36:15;;;;;;;12.95;9.27;;;14.90;51.20;13.90;102717.00;;;;4945936;28;20042;-88
2022/01/15 03:39:01;;;;;;;14.40;10.13;;;14.90;51.20;13.90;102713.00;;;;4960132;28;20125;-88
2022/01/15 03:41:47;;;;;;;14.45;9.55;;;14.90;51.20;13.90;102709.00;;;;4933763;28;20447;-88
2022/01/15 03:44:33;;;;;;;15.20;10.02;;;14.90;51.30;13.90;102703.00;;;;4932884;28;20132;-87
2022/01/15 03:47:19;;;;;;;13.32;9.57;;;14.90;51.30;13.90;102706.00;;;;4947602;28;20050;-88
2022/01/15 03:50:06;;;;;;;14.65;9.98;;;14.90;51.30;13.90;102700.00;;;;4947762;28;20065;-88
2022/01/15 03:52:53;;;;;;;15.77;10.15;;;14.90;51.30;13.90;102702.00;;;;4947247;28;20125;-88
2022/01/15 03:55:39;;;;;;;14.35;10.00;;;14.90;51.40;13.90;102709.00;;;;4934893;28;20050;-88
2022/01/15 03:58:25;;;;;;;13.93;9.75;;;14.90;51.40;13.90;102698.00;;;;4933943;28;20569;-87
2022/01/15 04:01:11;;;;;;;14.23;9.75;;;14.90;51.40;13.90;102693.00;;;;4935335;28;20049;-88
2022/01/15 04:03:57;;;;;;;13.38;10.00;;;14.90;51.40;13.90;102699.00;;;;4934075;28;20372;-88
2022/01/15 04:06:44;;;;;;;12.77;9.18;;;14.90;51.40;13.90;102699.00;;;;4934167;28;20077;-88
2022/01/15 04:09:30;;;;;;;13.80;9.30;;;14.90;51.50;13.90;102704.00;;;;4959227;28;20484;-88
2022/01/15 04:12:17;;;;;;;14.55;9.93;;;14.90;51.50;13.90;102686.00;;;;4932558;28;20107;-88
2022/01/15 04:15:04;;;;;;;15.32;10.40;;;14.90;51.40;13.90;102678.00;;;;4948887;28;20483;-88
2022/01/15 04:17:51;;;;;;;17.20;10.25;;;14.90;51.40;13.90;102679.00;;;;4931274;28;20129;-88
2022/01/15 04:20:37;;;;;;;14.27;9.65;;;14.90;51.40;14.00;102686.00;;;;4933325;28;20054;-88
2022/01/15 04:23:23;;;;;;;15.43;10.50;;;14.90;51.50;14.00;102681.00;;;;4959762;28;20121;-88
2022/01/15 04:26:10;;;;;;;15.25;10.85;;;14.90;51.50;14.00;102675.00;;;;4959325;28;20527;-88
2022/01/15 04:29:03;;;;;;;15.13;10.50;;;14.90;51.50;14.00;102683.00;;;;4934303;28;20057;-89
2022/01/15 04:31:50;;;;;;;16.15;10.93;;;14.90;52.20;14.00;102681.00;;;;4954936;28;20043;-88
2022/01/15 04:34:36;;;;;;;17.25;10.23;;;14.90;51.50;14.00;102674.00;;;;4974049;28;20049;-87
2022/01/15 04:37:24;;;;;;;16.25;10.68;;;14.90;51.40;14.10;102680.00;;;;4935003;28;20491;-87
2022/01/15 04:40:11;;;;;;;13.35;9.75;;;14.90;51.40;14.10;102674.00;;;;4933034;28;20040;-88
2022/01/15 04:42:58;;;;;;;15.53;10.90;;;14.90;52.10;14.10;102668.00;;;;4935992;28;20046;-88
2022/01/15 04:45:44;;;;;;;16.55;11.35;;;15.00;51.40;14.10;102682.00;;;;4945423;28;20042;-88
2022/01/15 04:48:30;;;;;;;16.25;10.65;;;15.00;51.30;14.10;102676.00;;;;4933250;28;20034;-87
2022/01/15 04:51:17;;;;;;;15.10;9.90;;;15.00;51.30;14.10;102674.00;;;;4946515;28;20459;-88
2022/01/15 04:54:03;;;;;;;15.30;9.95;;;15.00;51.30;14.10;102665.00;;;;4933669;28;20042;-88
2022/01/15 04:56:50;;;;;;;15.07;10.23;;;15.00;51.30;14.10;102665.00;;;;4932813;28;20069;-88
2022/01/15 04:59:36;;;;;;;16.23;10.90;;;15.00;51.30;14.10;102659.00;;;;4947842;28;20100;-88
2022/01/15 05:02:22;;;;;;;16.77;10.30;;;15.00;51.30;14.10;102662.00;;;;4933455;28;20113;-88
2022/01/15 05:05:09;;;;;;;14.48;9.82;;;15.00;51.20;14.10;102671.00;;;;4950015;28;20154;-88
2022/01/15 05:07:55;;;;;;;15.52;10.45;;;15.00;51.20;14.10;102650.00;;;;4941537;28;20054;-88
2022/01/15 05:10:46;;;;;;;17.38;11.25;;;15.10;51.20;14.10;102659.00;;;;4936363;28;20064;-88
2022/01/15 05:13:34;;;;;;;15.55;10.75;;;15.10;51.20;14.10;102656.00;;;;4952058;28;20069;-88
2022/01/15 05:16:20;;;;;;;14.68;9.77;;;15.10;51.20;14.10;102650.00;;;;4937656;28;20054;-88
2022/01/15 05:19:06;;;;;;;15.75;10.57;;;15.10;51.20;14.10;102662.00;;;;4934000;28;20458;-88
2022/01/15 05:21:55;;;;;;;16.10;10.75;;;15.10;51.20;14.10;102648.00;;;;4936057;28;20050;-88
2022/01/15 05:24:41;;;;;;;14.98;10.23;;;15.10;51.20;14.10;102650.00;;;;4949745;28;20041;-88
2022/01/15 05:27:28;;;;;;;16.08;10.68;;;15.10;51.20;14.10;102657.00;;;;4950491;28;20080;-88
2022/01/15 05:30:14;;;;;;;16.33;10.77;;;15.10;51.20;14.10;102647.00;;;;4948746;28;20178;-88
2022/01/15 05:33:01;;;;;;;15.27;9.93;;;15.10;51.20;14.10;102652.00;;;;4950183;28;20038;-88
2022/01/15 05:35:47;;;;;;;15.82;10.68;;;15.10;51.20;14.10;102653.00;;;;4929887;28;20058;-88
2022/01/15 05:38:33;;;;;;;16.55;10.98;;;15.10;51.20;14.10;102647.00;;;;4931491;28;20057;-88
2022/01/15 05:41:22;;;;;;;16.27;11.05;;;15.10;51.10;14.10;102646.00;;;;4930673;28;20181;-88
2022/01/15 05:44:08;;;;;;;17.48;10.65;;;15.10;51.20;14.10;102648.00;;;;4935031;28;20185;-88
2022/01/15 05:46:54;;;;;;;18.27;10.60;;;15.10;51.20;14.10;102639.00;;;;4931292;28;20069;-88
2022/01/15 05:49:41;;;;;;;15.90;10.55;;;15.10;51.20;14.10;102638.00;;;;4936855;28;22306;-88
2022/01/15 05:52:30;;;;;;;15.63;10.88;;;15.10;51.20;14.10;102642.00;;;;4940268;28;20042;-88
2022/01/15 05:55:16;;;;;;;15.00;10.18;;;15.10;51.20;14.10;102645.00;;;;4946905;28;20050;-88
2022/01/15 05:58:02;;;;;;;15.07;10.25;;;15.10;51.20;14.10;102626.00;;;;4913974;28;20808;-88
2022/01/15 06:00:48;;;;;;;15.02;10.13;;;15.10;51.30;14.10;102632.00;;;;4911535;28;20049;-88
2022/01/15 06:03:35;;;;;;;16.13;9.93;;;15.10;51.20;14.10;102616.00;;;;4929780;28;20046;-87
2022/01/15 06:06:21;;;;;;;16.17;10.52;;;15.10;51.20;14.10;102619.00;;;;4931243;28;20055;-88
2022/01/15 06:09:07;;;;;;;16.02;11.10;;;15.10;51.20;14.10;102625.00;;;;4914970;28;20062;-88
2022/01/15 06:11:56;;;;;;;14.02;9.57;;;15.00;51.20;14.10;102622.00;;;;4917197;28;20039;-88
2022/01/15 06:14:42;;;;;;;16.42;10.82;;;15.00;51.90;14.10;102620.00;;;;4943677;28;20113;-88
2022/01/15 06:17:29;;;;;;;15.63;10.50;;;15.00;51.20;14.10;102610.00;;;;4929617;28;20046;-88
2022/01/15 06:20:18;;;;;;;16.00;10.65;;;15.00;51.20;14.10;102623.00;;;;4943360;28;20050;-89
2022/01/15 06:23:04;;;;;;;15.77;10.60;;;15.00;51.20;14.10;102603.00;;;;4935074;28;20046;-88
2022/01/15 06:25:51;;;;;;;14.73;10.27;;;15.00;51.20;14.10;102616.00;;;;4917023;28;20052;-87
2022/01/15 06:28:37;;;;;;;15.75;10.63;;;15.00;51.20;14.10;102615.00;;;;4928838;28;20042;-88
2022/01/15 06:31:28;;;;;;;16.75;9.85;;;15.00;51.20;14.10;102616.00;;;;4929437;28;20038;-88
2022/01/15 06:34:14;;;;;;;16.05;10.65;;;15.00;51.20;14.10;102620.00;;;;4949463;28;20484;-88
2022/01/15 06:37:00;;;;;;;15.18;10.45;;;15.10;51.30;14.10;102619.00;;;;4947803;28;20042;-88
2022/01/15 06:39:47;;;;;;;18.00;11.30;;;15.00;51.20;14.10;102621.00;;;;4948864;28;20042;-88
2022/01/15 06:42:33;;;;;;;15.73;11.02;;;15.10;51.20;14.10;102622.00;;;;4937141;28;20038;-88
2022/01/15 06:45:20;;;;;;;17.25;10.93;;;15.10;51.90;14.10;102619.00;;;;4946170;28;20510;-88
2022/01/15 06:48:06;;;;;;;16.45;9.70;;;15.10;51.20;14.10;102617.00;;;;4963512;28;20073;-88
2022/01/15 06:50:52;;;;;;;15.88;10.10;;;15.10;51.20;14.10;102629.00;;;;4944597;28;20113;-88
2022/01/15 06:53:39;;;;;;;17.48;10.95;;;15.10;51.20;14.10;102623.00;;;;4956492;28;20113;-88
2022/01/15 06:56:25;;;;;;;16.23;10.20;;;15.10;51.30;14.10;102619.00;;;;4933541;28;20887;-88
2022/01/15 06:59:11;;;;;;;16.30;9.98;;;15.00;51.20;14.10;102621.00;;;;4947555;28;20049;-88
2022/01/15 07:01:57;;;;;;;14.70;9.80;;;15.00;51.20;14.10;102613.00;;;;4960284;28;20392;-88
2022/01/15 07:04:44;;;;;;;15.30;10.15;;;15.10;51.20;14.20;102621.00;;;;4948229;28;20038;-88
2022/01/15 07:07:31;;;;;;;14.70;9.55;;;15.10;51.20;14.20;102608.00;;;;4948174;28;20503;-88
2022/01/15 07:10:18;;;;;;;14.25;9.73;;;15.00;51.10;14.10;102606.00;;;;4948861;28;20042;-88
2022/01/15 07:13:06;;;;;;;14.07;9.73;;;15.10;51.10;14.20;102603.00;;;;4941904;28;20471;-87
2022/01/15 07:15:52;;;;;;;12.25;8.43;;;15.10;51.10;14.10;102599.00;;;;4947356;28;20109;-88
2022/01/15 07:18:38;;;;;;;12.88;9.18;;;15.10;51.10;14.20;102600.00;;;;4962657;28;20108;-87
2022/01/15 07:21:24;;;;;;;15.95;9.25;;;15.10;51.10;14.10;102608.00;;;;4946919;28;20042;-88
2022/01/15 07:24:11;;;;;;;16.15;9.63;;;15.10;51.10;14.10;102599.00;;;;4934125;28;20435;-88
2022/01/15 07:26:58;;;;;;;13.15;8.70;;;15.10;51.10;14.10;102598.00;;;;4945181;28;20042;-87
2022/01/15 07:29:44;;;;;;;13.93;9.23;;;15.10;51.10;14.10;102612.00;;;;4931578;28;20042;-87
2022/01/15 07:32:30;;;;;;;13.93;8.85;;;15.10;51.10;14.10;102599.00;;;;4931332;28;20038;-87
2022/01/15 07:35:16;;;;;;;12.73;8.85;;;15.10;51.20;14.10;102606.00;;;;4972059;28;20053;-87
2022/01/15 07:38:03;;;;;;;13.05;8.93;;;15.10;51.10;14.10;102601.00;;;;4934494;28;20898;-87
2022/01/15 07:40:49;;;;;;;12.70;8.30;;;15.10;51.10;14.10;102595.00;;;;4948710;28;20038;-87
2022/01/15 07:43:35;;;;;;;12.20;7.72;;;15.10;51.20;14.10;102605.00;;;;4950166;28;20083;-87
2022/01/15 07:46:21;;;;;;;12.82;8.55;;;15.10;51.20;14.10;102595.00;;;;4947516;28;20046;-87
2022/01/15 07:49:08;;;;;;;12.48;8.18;;;15.10;51.20;14.10;102598.00;;;;4944851;28;20083;-87
2022/01/15 07:51:54;;;;;;;12.30;8.32;;;15.10;51.20;14.10;102610.00;;;;4969772;28;20041;-87
2022/01/15 07:54:43;;;;;;;12.05;7.88;;;15.10;51.20;14.10;102605.00;;;;4937601;28;20124;-87
2022/01/15 07:57:30;;;;;;;14.23;8.23;;;15.00;51.20;14.10;102603.00;;;;4943974;28;20073;-87
2022/01/15 08:00:17;;;;;;;11.52;8.02;;;15.10;51.20;14.10;102613.00;;;;4960330;28;20669;-87
2022/01/15 08:03:04;;;;;;;11.57;7.97;;;15.00;51.20;14.10;102603.00;;;;4955707;28;20042;-87
2022/01/15 08:05:50;;;;;;;11.93;7.90;;;15.00;51.20;14.10;102602.00;;;;4956681;28;20082;-86
2022/01/15 08:08:36;;;;;;;11.50;8.07;;;15.10;51.20;14.10;102595.00;;;;4946981;28;20494;-87
2022/01/15 08:11:22;;;;;;;12.10;7.25;;;15.10;51.30;14.10;102601.00;;;;4934789;28;20125;-87
2022/01/15 08:14:16;;;;;;;11.85;6.97;;;15.10;51.30;14.10;102604.00;;;;4945519;28;20041;-88
2022/01/15 08:17:04;;;;;;;10.40;7.28;;;15.10;51.30;14.10;102586.00;;;;4961398;28;20133;-87
2022/01/15 08:19:50;;;;;;;11.70;7.28;;;15.10;51.20;14.10;102598.00;;;;4957023;28;20070;-88
2022/01/15 08:22:38;;;;;;;10.00;6.95;;;15.10;51.20;14.10;102596.00;;;;4933640;28;20064;-88
2022/01/15 08:25:25;;;;;;;13.48;7.90;;;15.10;51.20;14.10;102593.00;;;;4934643;28;20134;-87
2022/01/15 08:28:11;;;;;;;11.10;7.40;;;15.10;51.20;14.10;102586.00;;;;4945130;28;20030;-82
2022/01/15 08:30:58;;;;;;;10.93;7.72;;;15.10;51.20;14.10;102601.00;;;;4933878;28;20106;-81
2022/01/15 08:33:44;;;;;;;10.30;6.95;;;15.10;51.20;14.10;102596.00;;;;4941898;28;20051;-81
2022/01/15 08:36:32;;;;;;;12.25;7.28;;;15.10;51.30;14.10;102600.00;;;;4942490;28;20058;-81
2022/01/15 08:39:18;;;;;;;9.88;6.53;;;15.10;51.20;14.10;102606.00;;;;4938919;28;20070;-81
2022/01/15 08:42:07;;;;;;;11.10;6.93;;;15.10;51.20;14.10;102596.00;;;;4960170;28;20039;-82
2022/01/15 08:44:54;;;;;;;12.68;7.15;;;15.10;51.20;14.10;102592.00;;;;4938051;28;20113;-81
2022/01/15 08:47:40;;;;;;;9.98;6.60;;;15.10;51.20;14.10;102593.00;;;;4950694;28;20041;-81
2022/01/15 08:50:27;;;;;;;12.95;6.93;;;15.00;51.30;14.10;102599.00;;;;4935824;28;20089;-81
2022/01/15 08:53:18;;;;;;;10.80;6.95;;;15.10;51.30;14.10;102603.00;;;;4936192;28;20038;-81
2022/01/15 08:56:05;;;;;;;10.93;6.90;;;15.10;51.20;14.10;102591.00;;;;4965697;28;20054;-81
2022/01/15 08:58:55;;;;;;;10.98;6.78;;;15.10;51.30;14.10;102594.00;;;;4943477;28;20078;-82
2022/01/15 09:01:41;;;;;;;10.18;6.63;;;15.10;52.00;14.10;102590.00;;;;4940501;28;20081;-81
2022/01/15 09:04:28;;;;;;;9.30;6.63;;;15.10;51.30;14.10;102579.00;;;;4936580;28;20046;-81
2022/01/15 09:07:14;;;;;;;18.80;6.35;;;15.10;51.30;14.10;102584.00;;;;4932365;28;20054;-81
2022/01/15 09:10:01;;;;;;;11.25;6.43;;;15.10;51.70;14.10;102586.00;;;;4960226;28;20429;-81
2022/01/15 09:12:47;;;;;;;12.80;6.90;;;15.10;52.00;14.20;102573.00;;;;4948177;28;20490;-81
2022/01/15 09:15:34;;;;;;;29.15;8.82;;;15.10;52.10;14.20;102572.00;;;;4946158;28;20129;-81
2022/01/15 09:18:20;;;;;;;23.80;7.80;;;15.10;52.10;14.20;102569.00;;;;4926881;28;20074;-81
2022/01/15 09:21:07;;;;;;;29.30;8.65;;;15.20;52.20;14.30;102576.00;;;;4943035;28;20061;-81
2022/01/15 09:23:53;;;;;;;25.35;8.73;;;15.20;52.80;14.30;102567.00;;;;4939832;28;20128;-81
2022/01/15 09:32:51;;;;;;;16.08;6.45;;;15.30;52.00;14.40;102569.00;;;;4960377;28;20353;-80
2022/01/15 09:35:37;;;;;;;20.02;6.40;;;15.30;52.00;14.40;102572.00;;;;4956127;28;20043;-80
2022/01/15 09:38:24;;;;;;;15.50;6.28;;;15.40;52.00;14.50;102561.00;;;;4915542;28;20057;-80
2022/01/15 09:41:13;;;;;;;12.73;6.80;;;15.40;51.90;14.50;102553.00;;;;4913787;28;20041;-80
2022/01/15 09:43:59;;;;;;;15.38;6.07;;;15.50;51.90;14.50;102559.00;;;;4952265;28;20035;-80
2022/01/15 09:46:46;;;;;;;11.07;5.93;;;15.50;51.80;14.50;102552.00;;;;4933565;28;20109;-80
2022/01/15 09:49:32;;;;;;;17.23;6.60;;;15.50;51.90;14.60;102551.00;;;;4938739;28;20087;-80
2022/01/15 09:52:18;;;;;;;13.98;6.07;;;15.50;51.90;14.60;102549.00;;;;4938834;28;20137;-80
2022/01/15 09:55:09;;;;;;;25.70;6.50;;;15.60;51.70;14.60;102545.00;;;;4938431;28;20045;-80
2022/01/15 09:57:55;;;;;;;12.10;5.20;;;15.60;51.70;14.60;102553.00;;;;4935260;28;20038;-80
2022/01/15 10:00:42;;;;;;;14.45;6.13;;;15.60;51.60;14.60;102547.00;;;;4932537;28;20115;-80
2022/01/15 10:03:28;;;;;;;15.18;6.03;;;15.70;51.70;14.70;102541.00;;;;4964499;28;20125;-80
2022/01/15 10:06:14;;;;;;;14.85;6.38;;;15.70;51.70;14.70;102543.00;;;;4941620;28;20121;-80
2022/01/15 10:09:06;;;;;;;14.85;6.15;;;15.70;51.60;14.70;102540.00;;;;4939047;28;20093;-81
2022/01/15 10:11:52;;;;;;;14.98;5.28;;;15.70;51.50;14.70;102540.00;;;;4934234;28;20534;-81
2022/01/15 10:14:41;;;;;;;12.35;5.90;;;15.70;51.60;14.70;102530.00;;;;4938364;28;20523;-81
2022/01/15 10:17:36;;;;;;;12.75;6.20;;;15.80;51.60;14.70;102540.00;;;;4949359;28;21468;-81
2022/01/15 10:20:23;;;;;;;13.70;5.30;;;15.80;51.60;14.70;102531.00;;;;4951300;28;20051;-81
2022/01/15 10:23:16;;;;;;;14.63;4.77;;;15.80;51.50;14.70;102537.00;;;;4944520;28;20042;-81
2022/01/15 10:26:35;;;;;;;12.88;5.13;;;15.80;51.50;14.80;102531.00;;;;4940023;28;20047;-81
2022/01/15 10:29:25;;;;;;;18.92;5.75;;;15.80;51.50;14.70;102521.00;;;;4954513;28;20038;-81
2022/01/15 10:32:17;;;;;;;12.90;5.10;;;15.80;51.40;14.70;102520.00;;;;4922679;28;20560;-82
2022/01/15 10:35:15;;;;;;;19.42;7.00;;;15.80;51.20;14.70;102519.00;;;;4947339;28;20105;-81
2022/01/15 10:38:09;;;;;;;15.57;5.40;;;15.80;51.10;14.70;102514.00;;;;4922899;28;20388;-82
2022/01/15 10:40:59;;;;;;;11.43;4.82;;;15.80;51.00;14.70;102520.00;;;;4948092;28;20053;-81
2022/01/15 10:43:47;;;;;;;11.70;5.50;;;15.80;50.80;14.70;102517.00;;;;4941335;28;20042;-82
2022/01/15 10:46:35;;;;;;;15.20;5.17;;;15.80;50.80;14.70;102514.00;;;;4944437;28;21178;-81
2022/01/15 10:49:22;;;;;;;;;;;15.80;50.90;14.60;102504.00;;;;4930714;28;20376;-81
2022/01/15 10:52:11;;;;;;;10.93;4.30;;;15.80;50.90;14.60;102514.00;;;;4972218;28;19914;-81
2022/01/15 10:55:15;;;;;;;7.10;4.47;;;15.70;50.60;14.60;102513.00;;;;4935403;28;20042;-81
2022/01/15 10:58:12;;;;;;;8.40;4.13;;;15.70;50.60;14.60;102512.00;;;;4955505;28;20035;-81
2022/01/15 11:00:59;;;;;;;8.50;4.32;;;15.70;50.60;14.60;102510.00;;;;4953789;28;20551;-81
2022/01/15 13:03:56;;;;;;;209.23;18.67;;;15.50;52.00;14.50;102373.00;;;;4992758;28;20054;-80
2022/01/15 13:06:42;;;;;;;315.52;28.77;;;15.50;52.20;14.60;102371.00;;;;4904768;29;20203;-87
2022/01/15 13:09:44;;;;;;;189.85;20.27;;;15.50;52.30;14.70;102361.00;;;;4885626;29;20086;-87
2022/01/15 13:12:44;;;;;;;125.47;16.48;;;15.60;52.20;14.70;102352.00;;;;4874992;29;20082;-87
2022/01/15 13:15:29;;;;;;;178.43;19.20;;;15.60;52.10;14.70;102350.00;;;;4901456;29;20050;-87
2022/01/15 13:18:16;;;;;;;144.07;18.80;;;15.60;52.00;14.80;102347.00;;;;4875832;29;20047;-87
2022/01/15 13:21:03;;;;;;;132.07;18.35;;;15.70;51.90;14.90;102336.00;;;;4897346;29;20051;-87
2022/01/15 13:23:58;;;;;;;92.45;14.27;;;15.80;51.80;14.90;102339.00;;;;4886945;29;20768;-87
2022/01/15 13:26:46;;;;;;;95.45;15.20;;;15.80;51.70;15.00;102328.00;;;;4887556;29;20055;-87
2022/01/15 13:29:39;;;;;;;70.60;12.25;;;15.90;51.90;15.00;102318.00;;;;4888051;29;20043;-88
2022/01/15 13:32:24;;;;;;;102.63;14.57;;;15.90;51.90;15.00;102324.00;;;;4875420;29;20051;-87
2022/01/15 13:35:12;;;;;;;68.50;10.82;;;16.00;51.70;15.00;102312.00;;;;4888397;29;20067;-87
2022/01/15 13:38:00;;;;;;;66.53;11.15;;;16.00;51.70;15.00;102302.00;;;;4886809;29;20059;-87
2022/01/15 13:40:47;;;;;;;65.55;11.63;;;16.00;51.50;15.00;102301.00;;;;4886962;29;20180;-88
2022/01/15 13:43:34;;;;;;;62.70;10.57;;;16.00;51.40;15.00;102300.00;;;;4874113;29;20059;-87
2022/01/15 13:46:20;;;;;;;62.75;9.57;;;16.10;51.50;15.00;102302.00;;;;4901768;29;20051;-87
2022/01/15 13:49:34;;;;;;;53.17;10.45;;;16.20;51.70;15.00;102296.00;;;;4887633;29;20047;-88
2022/01/15 13:55:33;;;;;;;104.07;12.57;;;16.10;51.40;15.00;102290.00;;;;4892509;29;20043;-87
2022/01/15 13:58:17;;;;;;;85.18;11.10;;;16.10;51.60;15.10;102291.00;;;;4884542;29;20043;-86
2022/01/15 14:01:29;;;;;;;56.53;9.27;;;16.10;51.50;15.10;102294.00;;;;4887539;29;20548;-87
2022/01/15 14:04:19;;;;;;;47.28;10.50;;;16.30;51.70;15.10;102275.00;;;;4888439;29;20593;-87
2022/01/15 14:07:10;;;;;;;49.83;9.68;;;16.10;51.80;15.20;102282.00;;;;4925772;29;20172;-87
2022/01/15 14:09:54;;;;;;;48.58;8.32;;;16.20;51.70;15.20;102281.00;;;;4918751;29;20508;-87
2022/01/15 14:12:38;;;;;;;48.33;9.00;;;16.30;51.50;15.10;102270.00;;;;4912441;29;20719;-87
2022/01/15 14:15:46;;;;;;;123.22;16.58;;;16.40;51.20;15.10;102271.00;;;;4926812;29;20593;-88
2022/01/15 14:18:40;;;;;;;148.38;17.23;;;16.20;50.70;15.10;102262.00;;;;4937247;29;20130;-87
2022/01/15 14:24:26;;;;;;;191.15;23.90;;;16.20;51.00;15.10;102260.00;;;;4931749;29;20437;-87
2022/01/15 14:27:23;;;;;;;190.95;21.50;;;16.20;51.20;15.10;102256.00;;;;4910381;29;20078;-87
2022/01/15 14:30:07;;;;;;;199.68;22.42;;;16.20;51.30;15.10;102258.00;;;;4911475;29;20547;-87
2022/01/15 14:32:51;;;;;;;114.53;13.75;;;16.20;51.30;15.10;102250.00;;;;4903259;29;20051;-87